M I D A S
Marine Information and Data Acquisition System
Tripno 935 of the Zeeleeuw from 2005-07-04 06:34:52 to 2005-07-04 12:00:02
Back to CruiseResearch ActivitiesStationsMapUnderway DataData graphs

EquipmentUnitsComment
TimeDGPSUTC
LatitudeDGPSDM.mWGS84
LongitudeDGPSDM.mWGS84
TemperatureSBE03/SBE38deg celciusITS90
ConductivitySBE21S/mITS90
SalinitySBE21 Practical Salinity Units
ChlorophylAChelsea fluorimeterg/lCalibrated in Aceton
Missing or incorrect values are displayed as -999
Sea surface data collected by the RV Zeeleeuw from 2005-07-04 06:30:44 to 2005-07-04 12:10:51
Time Latitude Longitude Temperature Conductivity Salinity ChlorophylA
2005-07-04 06:31:49 51°13.593 2°56.116 20.3325 2.545163 17.161749 12.466546
2005-07-04 06:32:49 51°13.595 2°56.111 20.2473 2.718507 18.484856 13.174443
2005-07-04 06:33:48 51°13.595 2°56.109 20.3922 2.687368 18.253734 12.938477
2005-07-04 06:34:50 51°13.581 2°56.124 20.3924 2.44348 16.400767 13.713794
2005-07-04 06:35:49 51°13.55 2°56.189 20.6357 2.467453 16.580047 13.039606
2005-07-04 06:36:50 51°13.552 2°56.192 20.8372 1.711244 11.033819 12.837349
2005-07-04 06:37:49 51°13.551 2°56.183 20.7218 1.634971 10.483229 13.039606
2005-07-04 06:38:48 51°13.552 2°56.177 20.76 1.91256 12.468239 12.196871
2005-07-04 06:39:50 51°13.55 2°56.167 20.665 1.811886 11.737899 13.781212
2005-07-04 06:40:49 51°13.572 2°56.098 20.8543 1.989109 13.020689 16.208289
2005-07-04 06:41:49 51°13.62 2°55.967 20.8193 1.545819 9.854223 16.545383
2005-07-04 06:42:50 51°13.686 2°55.82 20.6995 1.644727 10.549461 15.466683
2005-07-04 06:43:49 51°13.772 2°55.684 20.5998 2.023661 13.266362 16.680221
2005-07-04 06:44:49 51°13.887 2°55.587 20.5418 2.160223 14.275042 17.624084
2005-07-04 06:45:50 51°14.01 2°55.502 20.1287 2.270244 15.108526 17.590375
2005-07-04 06:46:49 51°14.136 2°55.415 20.1377 3.021796 20.841291 18.028597
2005-07-04 06:47:49 51°14.265 2°55.246 20.2674 2.830983 19.372656 16.309418
2005-07-04 06:48:48 51°14.381 2°55.022 20.0909 2.643398 17.933307 15.803777
2005-07-04 06:49:49 51°14.528 2°54.786 19.468 3.193721 22.217894 15.432973
2005-07-04 06:50:49 51°14.708 2°54.594 19.3331 4.03979 29.198474 14.961042
2005-07-04 06:51:49 51°14.894 2°54.39 19.199 4.04306 29.299166 14.826204
2005-07-04 06:52:48 51°15.078 2°54.215 19.1395 4.230415 30.914957 14.859913
2005-07-04 06:53:49 51°15.268 2°54.012 19.0975 4.280608 31.359337 15.095879
2005-07-04 06:54:49 51°15.46 2°53.817 19.0768 4.290732 31.466332 14.994751
2005-07-04 06:55:49 51°15.659 2°53.646 19.0363 4.290838 31.501678 14.758785
2005-07-04 06:56:49 51°15.856 2°53.481 19.0197 4.277868 31.412609 14.185725
2005-07-04 06:57:50 51°16.056 2°53.312 19.0602 4.278712 31.421678 13.578956
2005-07-04 06:58:49 51°16.252 2°53.156 19.0206 4.271857 31.347771 13.814922
2005-07-04 06:59:48 51°16.453 2°53.01 18.847 4.281454 31.465725 13.983469
2005-07-04 07:00:49 51°16.659 2°52.867 18.7783 4.330175 32.009194 13.477828
2005-07-04 07:01:49 51°16.856 2°52.73 18.7933 4.327012 32.007366 13.005896
2005-07-04 07:02:49 51°17.052 2°52.588 18.812 4.319419 31.933613 12.635093
2005-07-04 07:03:49 51°17.247 2°52.449 18.8641 4.305499 31.80224 12.668802
2005-07-04 07:04:49 51°17.449 2°52.33 18.8142 4.29527 31.684559 12.163161
2005-07-04 07:05:49 51°17.655 2°52.255 18.8071 4.296008 31.729441 12.264289
2005-07-04 07:06:48 51°17.86 2°52.224 18.8032 4.294743 31.729404 11.826067
2005-07-04 07:07:48 51°18.07 2°52.193 18.7894 4.281878 31.623846 11.69123
2005-07-04 07:08:49 51°18.287 2°52.158 18.7868 4.286835 31.670727 11.185589
2005-07-04 07:09:48 51°18.496 2°52.124 18.7636 4.283777 31.655338 11.017042
2005-07-04 07:10:48 51°18.71 2°52.089 18.7247 4.283882 31.676991 10.039469
2005-07-04 07:11:49 51°18.927 2°52.052 18.7328 4.283567 31.694642 8.85964
2005-07-04 07:12:50 51°19.143 2°52.011 18.7495 4.285043 31.702453 7.544973
2005-07-04 07:13:48 51°19.354 2°51.973 18.7235 4.284937 31.692268 6.129178
2005-07-04 07:14:49 51°19.573 2°51.932 18.7352 4.286308 31.716196 4.91564
2005-07-04 07:15:49 51°19.787 2°51.891 18.7603 4.283145 31.688966 4.409999
2005-07-04 07:16:50 51°20.005 2°51.849 18.8021 4.273232 31.581987 4.005486
2005-07-04 07:17:50 51°20.221 2°51.807 18.8289 4.264901 31.484992 3.836939
2005-07-04 07:18:49 51°20.436 2°51.767 18.8365 4.256465 31.399238 4.34258
2005-07-04 07:19:49 51°20.652 2°51.725 18.8035 4.252985 31.370049 4.072905
2005-07-04 07:20:49 51°20.87 2°51.683 18.7794 4.25172 31.383441 3.870648
2005-07-04 07:21:49 51°21.088 2°51.635 18.7121 4.235588 31.2727 3.836939
2005-07-04 07:22:50 51°21.309 2°51.588 18.6629 4.210388 31.11353 4.005486
2005-07-04 07:23:50 51°21.527 2°51.54 18.6294 4.195521 31.024814 3.702101
2005-07-04 07:24:49 51°21.744 2°51.491 18.5937 4.196998 31.059589 3.76952
2005-07-04 07:25:49 51°21.964 2°51.47 18.6167 4.221566 31.279853 3.870648
2005-07-04 07:26:49 51°22.187 2°51.452 18.6143 4.215345 31.214886 3.331298
2005-07-04 07:27:49 51°22.408 2°51.439 18.6002 4.200372 31.09607 3.499845
2005-07-04 07:28:49 51°22.627 2°51.441 18.5749 4.217454 31.255076 3.702101
2005-07-04 07:29:49 51°22.846 2°51.444 18.5498 4.217243 31.265271 2.859366
2005-07-04 07:30:49 51°23.059 2°51.452 18.4251 4.22705 31.376374 2.6234
2005-07-04 07:31:48 51°23.264 2°51.474 18.3885 4.267754 31.80118 2.555982
2005-07-04 07:32:48 51°23.472 2°51.497 18.3524 4.267965 31.832374 2.589691
2005-07-04 07:33:49 51°23.683 2°51.52 18.2651 4.270391 31.874843 2.353725
2005-07-04 07:34:49 51°23.892 2°51.539 18.2065 4.284417 32.065215 2.724529
2005-07-04 07:35:49 51°24.103 2°51.558 18.2769 4.284312 32.086837 2.825657
2005-07-04 07:36:49 51°24.314 2°51.564 18.275 4.270919 31.933398 3.061623
2005-07-04 07:37:49 51°24.524 2°51.57 18.3445 4.273766 31.950453 2.65711
2005-07-04 07:38:50 51°24.74 2°51.577 18.3823 4.261111 31.79641 2.791947
2005-07-04 07:39:49 51°24.952 2°51.58 18.3361 4.255944 31.743937 2.724529
2005-07-04 07:40:49 51°25.165 2°51.583 18.2872 4.258792 31.793758 2.724529
2005-07-04 07:41:50 51°25.379 2°51.588 18.203 4.264909 31.892722 2.825657
2005-07-04 07:42:49 51°25.589 2°51.594 18.1044 4.282098 32.112836 2.859366
2005-07-04 07:43:49 51°25.799 2°51.603 18.1011 4.289586 32.223133 2.6234
2005-07-04 07:44:49 51°26.012 2°51.633 18.0831 4.285684 32.196635 2.758238
2005-07-04 07:45:50 51°26.223 2°51.705 18.0759 4.286106 32.213791 2.758238
2005-07-04 07:46:49 51°26.423 2°51.806 18.0607 4.281572 32.183671 3.904358
2005-07-04 07:47:50 51°26.595 2°51.911 18.0717 4.27862 32.162286 2.893076
2005-07-04 07:48:46 51°26.676 2°51.996 18.0973 4.273242 32.112615 3.702101
2005-07-04 07:49:50 51°26.751 2°52.037 18.1237 4.262169 31.996037 3.76952
2005-07-04 07:50:50 51°26.753 2°52.031 18.1067 4.253839 31.9133 3.668392
2005-07-04 07:51:49 51°26.745 2°52.027 18.0587 4.259428 31.980941 4.241452
2005-07-04 07:52:49 51°26.737 2°52.024 18.044 4.269551 32.104278 3.938067
2005-07-04 07:53:49 51°26.73 2°52.02 18.0784 4.266071 32.073929 3.668392
2005-07-04 07:54:50 51°26.722 2°52.015 18.1234 4.260271 31.990267 4.443708
2005-07-04 07:55:49 51°26.723 2°52.025 18.1442 4.25774 31.943733 3.904358
2005-07-04 07:56:49 51°26.817 2°52.138 18.1509 4.252468 31.88779 3.904358
2005-07-04 07:57:49 51°26.906 2°52.362 18.1504 4.252468 31.888351 4.005486
2005-07-04 07:58:50 51°26.983 2°52.611 18.1913 4.24962 31.853312 3.735811
2005-07-04 07:59:50 51°27.028 2°52.795 18.232 4.244769 31.781999 3.702101
2005-07-04 08:00:49 51°27.053 2°52.845 18.265 4.240762 31.718437 3.80323
2005-07-04 08:01:50 51°27.047 2°52.849 18.2725 4.241394 31.700924 3.432426
2005-07-04 08:02:49 51°27.039 2°52.85 18.2889 4.242343 31.703286 3.735811
2005-07-04 08:03:50 51°27.054 2°52.879 18.3087 4.242659 31.694819 3.938067
2005-07-04 08:04:50 51°27.119 2°53.05 18.3305 4.242343 31.677202 3.263879
2005-07-04 08:05:50 51°27.191 2°53.26 18.348 4.24055 31.643432 3.702101
2005-07-04 08:06:49 51°27.247 2°53.474 18.3586 4.239073 31.620629 2.791947
2005-07-04 08:07:49 51°27.282 2°53.586 18.4087 4.2396 31.607888 3.365007
2005-07-04 08:08:49 51°27.288 2°53.616 18.423 4.230531 31.501073 3.331298
2005-07-04 08:09:49 51°27.284 2°53.63 18.4298 4.228317 31.474984 3.735811
2005-07-04 08:10:50 51°27.278 2°53.634 18.43 4.226313 31.453403 3.095332
2005-07-04 08:11:49 51°27.309 2°53.721 18.4395 4.22199 31.414762 3.331298
2005-07-04 08:12:50 51°27.382 2°53.941 18.4485 4.22547 31.437625 3.095332
2005-07-04 08:13:48 51°27.459 2°54.168 18.4612 4.224837 31.42032 3.398717
2005-07-04 08:14:49 51°27.529 2°54.336 18.4611 4.22916 31.450173 3.263879
2005-07-04 08:15:50 51°27.527 2°54.36 18.4448 4.230214 31.458924 2.994204
2005-07-04 08:16:50 51°27.51 2°54.364 18.4065 4.242446 31.592394 3.533554
2005-07-04 08:17:49 51°27.498 2°54.365 18.421 4.241181 31.594004 3.432426
2005-07-04 08:18:50 51°27.528 2°54.433 18.4345 4.236963 31.544073 3.162751
2005-07-04 08:19:50 51°27.64 2°54.411 18.4418 4.236014 31.529587 3.904358
2005-07-04 08:20:49 51°27.683 2°54.189 18.4533 4.242552 31.578947 3.162751
2005-07-04 08:21:50 51°27.74 2°53.942 18.4536 4.23517 31.508843 2.724529
2005-07-04 08:22:49 51°27.8 2°53.747 18.4613 4.234432 31.498322 2.690819
2005-07-04 08:23:49 51°27.815 2°53.7 18.4546 4.23032 31.460348 2.6234
2005-07-04 08:24:50 51°27.798 2°53.686 18.4463 4.231585 31.478528 2.488563
2005-07-04 08:25:50 51°27.777 2°53.673 18.4204 4.236963 31.540771 3.027913
2005-07-04 08:26:50 51°27.755 2°53.659 18.4334 4.236014 31.536187 3.129042
2005-07-04 08:27:49 51°27.737 2°53.655 18.4351 4.23264 31.502658 2.926785
2005-07-04 08:28:50 51°27.784 2°53.656 18.4459 4.229687 31.47539 3.19646
2005-07-04 08:29:50 51°27.765 2°53.499 18.4554 4.230742 31.477012 3.365007
2005-07-04 08:30:50 51°27.702 2°53.277 18.4431 4.232112 31.480162 3.263879
2005-07-04 08:31:50 51°27.637 2°53.046 18.424 4.232956 31.500341 3.702101
2005-07-04 08:32:49 51°27.594 2°52.914 18.4031 4.233484 31.520109 3.129042
2005-07-04 08:33:50 51°27.571 2°52.92 18.3643 4.232746 31.528279 3.398717
2005-07-04 08:34:49 51°27.55 2°52.92 18.3749 4.236437 31.581566 2.926785
2005-07-04 08:35:49 51°27.505 2°52.842 18.3819 4.234328 31.557404 3.365007
2005-07-04 08:36:50 51°27.453 2°52.638 18.3754 4.234749 31.553748 2.926785
2005-07-04 08:37:50 51°27.416 2°52.401 18.3632 4.234855 31.560687 3.600973
2005-07-04 08:38:50 51°27.385 2°52.218 18.3461 4.234855 31.571716 3.19646
2005-07-04 08:39:50 51°27.364 2°52.19 18.3278 4.23475 31.584637 3.499845
2005-07-04 08:40:49 51°27.341 2°52.183 18.2589 4.243713 31.687519 2.926785
2005-07-04 08:41:49 51°27.31 2°52.164 18.2482 4.252782 31.807105 2.960494
2005-07-04 08:42:49 51°27.261 2°51.988 18.2876 4.24867 31.759407 3.095332
2005-07-04 08:43:50 51°27.206 2°51.743 18.27 4.239601 31.669875 2.994204
2005-07-04 08:44:49 51°27.156 2°51.523 18.2169 4.241289 31.704489 2.825657
2005-07-04 08:45:49 51°27.127 2°51.418 18.1961 4.242238 31.748026 3.365007
2005-07-04 08:46:50 51°27.105 2°51.419 18.0366 4.243293 31.775798 3.129042
2005-07-04 08:47:49 51°27.084 2°51.42 17.9716 4.280413 32.228475 2.960494
2005-07-04 08:48:50 51°27.048 2°51.356 18.0798 4.277566 32.214206 3.129042
2005-07-04 08:49:49 51°27.092 2°51.183 18.1347 4.25289 31.923329 2.994204
2005-07-04 08:50:49 51°27.192 2°51.012 18.1461 4.243927 31.822454 2.994204
2005-07-04 08:51:50 51°27.304 2°50.838 18.1002 4.241396 31.792323 3.095332
2005-07-04 08:52:47 51°27.397 2°50.733 17.9256 4.251941 31.943504 3.668392
2005-07-04 08:53:50 51°27.428 2°50.748 17.8172 4.272084 32.244445 3.735811
2005-07-04 08:54:50 51°27.424 2°50.77 17.7624 4.284845 32.422705 3.365007
2005-07-04 08:55:50 51°27.418 2°50.787 17.7769 4.286743 32.466437 3.19646
2005-07-04 08:56:49 51°27.467 2°50.868 17.7936 4.283158 32.426303 4.140324
2005-07-04 08:57:50 51°27.55 2°51.088 17.8369 4.27894 32.375098 3.263879
2005-07-04 08:58:49 51°27.633 2°51.333 17.8751 4.270714 32.270631 3.432426
2005-07-04 08:59:49 51°27.671 2°51.521 17.8994 4.266707 32.211674 3.870648
2005-07-04 09:00:50 51°27.669 2°51.557 17.9597 4.260906 32.136582 4.477418
2005-07-04 09:01:49 51°27.657 2°51.576 17.9871 4.25711 32.064874 3.432426
2005-07-04 09:02:50 51°27.643 2°51.59 18.041 4.25152 31.990165 3.398717
2005-07-04 09:03:49 51°27.668 2°51.669 18.0651 4.25152 31.956868 3.735811
2005-07-04 09:04:49 51°27.726 2°51.85 18.1042 4.242978 31.864407 3.870648
2005-07-04 09:05:49 51°27.795 2°52.047 18.1344 4.232433 31.744696 3.702101
2005-07-04 09:06:49 51°27.851 2°52.217 18.1152 4.235491 31.755764 4.241452
2005-07-04 09:07:50 51°27.871 2°52.276 18.1127 4.241185 31.815178 4.072905
2005-07-04 09:08:49 51°27.863 2°52.295 18.0901 4.245403 31.856669 3.600973
2005-07-04 09:09:49 51°27.852 2°52.314 18.0936 4.24804 31.890545 4.814512
2005-07-04 09:10:49 51°27.897 2°52.407 18.1265 4.247301 31.875937 4.544836
2005-07-04 09:11:49 51°27.968 2°52.585 18.1155 4.244454 31.834148 3.971777
2005-07-04 09:12:49 51°28.04 2°52.78 18.1388 4.244138 31.836541 4.983059
2005-07-04 09:13:50 51°28.094 2°52.959 18.1402 4.241818 31.805361 3.870648
2005-07-04 09:14:49 51°28.095 2°53 18.1328 4.243505 31.812208 4.308871
2005-07-04 09:15:49 51°28.079 2°53.017 18.0962 4.251835 31.901572 6.432563
2005-07-04 09:16:50 51°28.063 2°53.04 18.0849 4.260166 31.997273 4.612255
2005-07-04 09:17:50 51°28.069 2°53.13 18.1488 4.254999 31.942691 4.612255
2005-07-04 09:18:50 51°28.115 2°53.264 18.1837 4.243083 31.795817 4.34258
2005-07-04 09:19:49 51°28.155 2°53.38 18.1839 4.238443 31.742503 4.275161
2005-07-04 09:20:49 51°28.141 2°53.483 18.1695 4.238337 31.738276 4.275161
2005-07-04 09:21:49 51°28.083 2°53.511 18.1972 4.241185 31.774355 4.005486
2005-07-04 09:22:50 51°28.036 2°53.483 18.2321 4.234857 31.696387 4.275161
2005-07-04 09:23:49 51°28.008 2°53.433 18.2547 4.231904 31.641726 4.409999
2005-07-04 09:24:49 51°27.983 2°53.385 18.2804 4.230428 31.615547 4.174033
2005-07-04 09:25:49 51°27.961 2°53.332 18.2948 4.228319 31.57748 4.140324
2005-07-04 09:26:50 51°27.939 2°53.268 18.3163 4.225472 31.543809 4.578546
2005-07-04 09:27:50 51°27.918 2°53.202 18.3194 4.22389 31.516839 4.544836
2005-07-04 09:28:49 51°27.899 2°53.145 18.3192 4.223468 31.51057 4.443708
2005-07-04 09:29:49 51°27.881 2°53.092 18.322 4.222835 31.505854 4.477418
2005-07-04 09:30:50 51°27.859 2°53.036 18.3239 4.22273 31.503322 3.904358
2005-07-04 09:31:49 51°27.842 2°52.983 18.3195 4.2241 31.511428 4.477418
2005-07-04 09:32:50 51°27.822 2°52.927 18.3209 4.224101 31.514735 4.308871
2005-07-04 09:33:49 51°27.804 2°52.874 18.3118 4.224522 31.521556 4.207742
2005-07-04 09:34:50 51°27.783 2°52.821 18.3127 4.224733 31.527173 4.275161
2005-07-04 09:35:50 51°27.768 2°52.766 18.3015 4.224522 31.527624 4.140324
2005-07-04 09:36:49 51°27.753 2°52.712 18.2939 4.224733 31.534347 4.106614
2005-07-04 09:37:49 51°27.737 2°52.66 18.2811 4.224628 31.540094 4.713383
2005-07-04 09:38:50 51°27.723 2°52.608 18.2804 4.224628 31.548933 5.353862
2005-07-04 09:39:50 51°27.71 2°52.555 18.279 4.224628 31.551696 3.971777
2005-07-04 09:40:49 51°27.7 2°52.502 18.2641 4.215771 31.48009 4.544836
2005-07-04 09:41:50 51°27.69 2°52.448 18.2528 4.22621 31.577049 4.308871
2005-07-04 09:42:50 51°27.678 2°52.397 18.2473 4.227159 31.589945 4.477418
2005-07-04 09:43:50 51°27.668 2°52.348 18.2445 4.227687 31.600989 4.34258
2005-07-04 09:44:49 51°27.653 2°52.294 18.2367 4.227265 31.596917 3.938067
2005-07-04 09:45:50 51°27.641 2°52.229 18.2332 4.227054 31.602915 3.938067
2005-07-04 09:46:50 51°27.634 2°52.158 18.2314 4.226843 31.60559 4.645965
2005-07-04 09:47:49 51°27.627 2°52.084 18.2227 4.226949 31.610351 4.477418
2005-07-04 09:48:50 51°27.627 2°52.005 18.2157 4.227265 31.614655 4.511127
2005-07-04 09:49:50 51°27.629 2°51.925 18.2159 4.227792 31.625159 4.511127
2005-07-04 09:50:50 51°27.635 2°51.868 18.2092 4.228214 31.62868 4.072905
2005-07-04 09:51:49 51°27.637 2°51.838 18.202 4.228847 31.64007 3.870648
2005-07-04 09:52:50 51°27.633 2°51.798 18.1892 4.231272 31.665882 4.477418
2005-07-04 09:53:50 51°27.581 2°51.758 18.1711 4.231905 31.680066 4.544836
2005-07-04 09:54:49 51°27.482 2°51.767 18.1808 4.23296 31.697784 4.005486
2005-07-04 09:55:50 51°27.349 2°51.798 18.2124 4.230218 31.663745 4.275161
2005-07-04 09:56:50 51°27.208 2°51.84 18.2256 4.229585 31.637349 4.578546
2005-07-04 09:57:50 51°27.064 2°51.875 18.193 4.233381 31.666264 4.443708
2005-07-04 09:58:50 51°26.943 2°51.93 18.152 4.240868 31.758315 4.983059
2005-07-04 09:59:50 51°26.867 2°52.036 18.1296 4.243505 31.809411 4.511127
2005-07-04 10:00:49 51°26.852 2°52.173 18.1413 4.244981 31.832961 4.409999
2005-07-04 10:01:50 51°26.891 2°52.297 18.153 4.247722 31.848069 4.308871
2005-07-04 10:02:50 51°26.945 2°52.402 18.1628 4.246351 31.824841 4.409999
2005-07-04 10:03:50 51°26.989 2°52.491 18.1752 4.246246 31.815569 4.645965
2005-07-04 10:04:50 51°27.023 2°52.572 18.1834 4.243715 31.787699 4.106614
2005-07-04 10:05:50 51°27.053 2°52.645 18.189 4.243715 31.783232 4.679674
2005-07-04 10:06:50 51°27.078 2°52.714 18.2002 4.242871 31.768925 5.657247
2005-07-04 10:07:50 51°27.1 2°52.781 18.2036 4.241711 31.755884 4.814512
2005-07-04 10:08:50 51°27.12 2°52.842 18.2094 4.240868 31.743818 4.039195
2005-07-04 10:09:48 51°27.136 2°52.895 18.2173 4.240973 31.735228 4.645965
2005-07-04 10:10:49 51°27.151 2°52.953 18.2274 4.23918 31.720812 5.084187
2005-07-04 10:11:50 51°27.162 2°53.009 18.2311 4.240024 31.720064 4.106614
2005-07-04 10:12:49 51°27.17 2°53.069 18.239 4.238969 31.70514 4.88193
2005-07-04 10:13:49 51°27.178 2°53.131 18.2439 4.240973 31.717973 4.207742
2005-07-04 10:14:49 51°27.185 2°53.192 18.2477 4.239918 31.707502 4.241452
2005-07-04 10:15:50 51°27.197 2°53.252 18.2477 4.237282 31.681609 4.612255
2005-07-04 10:16:49 51°27.211 2°53.31 18.2368 4.235911 31.669614 4.039195
2005-07-04 10:17:50 51°27.227 2°53.368 18.233 4.239391 31.705325 4.106614
2005-07-04 10:18:50 51°27.242 2°53.427 18.2406 4.24635 31.770116 4.308871
2005-07-04 10:19:49 51°27.258 2°53.484 18.2515 4.242449 31.726402 4.275161
2005-07-04 10:20:50 51°27.273 2°53.541 18.256 4.2415 31.710695 4.88193
2005-07-04 10:21:50 51°27.288 2°53.601 18.2442 4.246245 31.753638 4.645965
2005-07-04 10:22:50 51°27.302 2°53.662 18.2564 4.244663 31.740992 4.511127
2005-07-04 10:23:50 51°27.318 2°53.731 18.2571 4.240023 31.695042 4.443708
2005-07-04 10:24:50 51°27.339 2°53.81 18.2544 4.240234 31.701803 3.938067
2005-07-04 10:25:50 51°27.362 2°53.896 18.2782 4.238653 31.681939 4.140324
2005-07-04 10:26:49 51°27.382 2°53.988 18.2883 4.235384 31.640251 4.072905
2005-07-04 10:27:49 51°27.401 2°54.081 18.2931 4.232747 31.609413 4.039195
2005-07-04 10:28:50 51°27.42 2°54.18 18.2996 4.233907 31.617974 4.34258
2005-07-04 10:29:50 51°27.44 2°54.277 18.3041 4.233907 31.613545 4.241452
2005-07-04 10:30:49 51°27.455 2°54.363 18.3045 4.231165 31.586275 4.376289
2005-07-04 10:31:50 51°27.468 2°54.428 18.3047 4.230427 31.575704 4.443708
2005-07-04 10:32:50 51°27.48 2°54.483 18.291 4.233169 31.605734 4.241452
2005-07-04 10:33:50 51°27.499 2°54.547 18.2812 4.23338 31.616347 5.084187
2005-07-04 10:34:50 51°27.51 2°54.704 18.2906 4.232642 31.614624 4.005486
2005-07-04 10:35:50 51°27.374 2°54.801 18.264 4.235489 31.629496 3.80323
2005-07-04 10:36:49 51°27.16 2°54.774 18.2502 4.245507 31.741911 4.713383
2005-07-04 10:37:49 51°26.943 2°54.726 18.2071 4.24635 31.751735 4.679674
2005-07-04 10:38:50 51°26.727 2°54.648 18.1786 4.251096 31.830973 4.511127
2005-07-04 10:39:49 51°26.517 2°54.583 18.1682 4.261746 31.934037 3.870648
2005-07-04 10:40:50 51°26.302 2°54.52 18.1455 4.261536 31.943496 4.612255
2005-07-04 10:41:49 51°26.093 2°54.453 18.1074 4.261747 31.965488 4.140324
2005-07-04 10:42:49 51°25.887 2°54.405 18.092 4.270183 32.065481 4.072905
2005-07-04 10:43:49 51°25.68 2°54.349 18.091 4.26586 32.027539 3.533554
2005-07-04 10:44:49 51°25.472 2°54.318 18.1641 4.26586 32.037693 4.511127
2005-07-04 10:45:50 51°25.262 2°54.278 18.2703 4.22948 31.658135 4.275161
2005-07-04 10:46:49 51°25.055 2°54.24 18.3043 4.222098 31.526739 4.780802
2005-07-04 10:47:50 51°24.842 2°54.203 18.298 4.217985 31.472631 4.713383
2005-07-04 10:48:49 51°24.636 2°54.161 18.2469 4.215349 31.46996 4.275161
2005-07-04 10:49:50 51°24.424 2°54.127 18.317 4.221782 31.541781 4.443708
2005-07-04 10:50:49 51°24.218 2°54.087 18.3624 4.215454 31.434509 4.747093
2005-07-04 10:51:49 51°24.007 2°54.048 18.3582 4.216508 31.417461 4.275161
2005-07-04 10:52:49 51°23.801 2°54.02 18.3208 4.229689 31.543612 4.612255
2005-07-04 10:53:50 51°23.591 2°53.998 18.2673 4.243503 31.692972 4.983059
2005-07-04 10:54:49 51°23.383 2°53.967 18.2544 4.248143 31.753895 5.690956
2005-07-04 10:55:50 51°23.178 2°53.941 18.249 4.252888 31.802409 4.814512
2005-07-04 10:56:49 51°22.97 2°53.921 18.2223 4.245401 31.746596 5.320153
2005-07-04 10:57:49 51°22.764 2°53.878 18.2764 4.23918 31.709126 4.780802
2005-07-04 10:58:50 51°22.56 2°53.815 18.36 4.229689 31.575082 5.320153
2005-07-04 10:59:50 51°22.353 2°53.753 18.4129 4.244556 31.650791 5.4887
2005-07-04 11:00:50 51°22.149 2°53.695 18.4644 4.238545 31.556115 5.4887
2005-07-04 11:01:50 51°21.945 2°53.643 18.4591 4.222833 31.400411 5.117896
2005-07-04 11:02:50 51°21.739 2°53.571 18.4674 4.223677 31.404674 4.848221
2005-07-04 11:03:50 51°21.536 2°53.503 18.4986 4.226313 31.417789 5.657247
2005-07-04 11:04:50 51°21.332 2°53.439 18.5331 4.222727 31.3662 5.219024
2005-07-04 11:05:49 51°21.13 2°53.372 18.5612 4.219563 31.310561 5.185315
2005-07-04 11:06:50 51°20.925 2°53.309 18.5294 4.213342 31.250368 5.185315
2005-07-04 11:07:49 51°20.72 2°53.244 18.5017 4.206384 31.21611 5.219024
2005-07-04 11:08:50 51°20.513 2°53.172 18.527 4.205224 31.223885 4.747093
2005-07-04 11:09:50 51°20.309 2°53.11 18.6026 4.209546 31.226011 5.556118
2005-07-04 11:10:50 51°20.101 2°53.092 18.621 4.219352 31.255581 4.544836
2005-07-04 11:11:49 51°19.893 2°53.188 18.6102 4.228209 31.324455 4.679674
2005-07-04 11:12:49 51°19.68 2°53.197 18.5685 4.234957 31.389507 4.477418
2005-07-04 11:13:50 51°19.476 2°53.121 18.5394 4.244659 31.500377 4.443708
2005-07-04 11:14:49 51°19.283 2°53.031 18.504 4.251513 31.584045 4.477418
2005-07-04 11:15:50 51°19.086 2°52.934 18.4991 4.261636 31.687845 4.511127
2005-07-04 11:16:49 51°18.891 2°52.843 18.4925 4.264694 31.715991 4.005486
2005-07-04 11:17:50 51°18.692 2°52.748 18.458 4.270389 31.775995 4.443708
2005-07-04 11:18:49 51°18.495 2°52.65 18.4422 4.275451 31.838013 4.443708
2005-07-04 11:19:50 51°18.291 2°52.551 18.4191 4.27524 31.847917 4.578546
2005-07-04 11:20:50 51°18.098 2°52.462 18.3958 4.272077 31.840485 4.645965
2005-07-04 11:21:50 51°17.899 2°52.377 18.3665 4.271972 31.860736 4.34258
2005-07-04 11:22:50 51°17.701 2°52.288 18.321 4.282833 31.972979 5.219024
2005-07-04 11:23:50 51°17.504 2°52.196 18.2953 4.295383 32.112987 4.949349
2005-07-04 11:24:49 51°17.308 2°52.117 18.2804 4.31215 32.27281 4.578546
2005-07-04 11:25:50 51°17.113 2°52.01 18.2696 4.315314 32.30945 5.690956
2005-07-04 11:26:49 51°16.933 2°51.861 18.2721 4.31563 32.31606 4.578546
2005-07-04 11:27:49 51°16.75 2°51.711 18.3073 4.317634 32.327722 4.848221
2005-07-04 11:28:50 51°16.571 2°51.547 18.3525 4.326175 32.369121 4.679674
2005-07-04 11:29:50 51°16.399 2°51.372 18.3935 4.329338 32.362712 4.34258
2005-07-04 11:30:50 51°16.231 2°51.188 18.4409 4.334083 32.372353 4.409999
2005-07-04 11:31:49 51°16.067 2°51.009 18.4886 4.345788 32.430984 5.016768
2005-07-04 11:32:50 51°15.899 2°50.833 18.5886 4.349267 32.427771 4.072905
2005-07-04 11:33:50 51°15.735 2°50.662 18.6426 4.344836 32.305915 4.578546
2005-07-04 11:34:50 51°15.57 2°50.483 18.7166 4.34125 32.233596 4.409999
2005-07-04 11:35:50 51°15.404 2°50.297 18.7614 4.351373 32.266138 5.387571
2005-07-04 11:36:50 51°15.237 2°50.12 18.7884 4.355591 32.269265 4.88193
2005-07-04 11:37:50 51°15.071 2°49.941 18.8107 4.358227 32.271013 4.780802
2005-07-04 11:38:50 51°14.907 2°49.761 18.8306 4.363077 32.293864 5.623537
2005-07-04 11:39:50 51°14.744 2°49.582 18.8343 4.367717 32.318301 7.207879
2005-07-04 11:40:50 51°14.582 2°49.399 18.8414 4.370143 32.336127 7.073042
2005-07-04 11:41:50 51°14.404 2°49.27 18.8501 4.372252 32.346873 7.17417
2005-07-04 11:42:50 51°14.222 2°49.415 18.8497 4.375416 32.368008 5.657247
2005-07-04 11:43:50 51°14.184 2°49.778 18.849 4.375732 32.371182 6.735947
2005-07-04 11:44:50 51°14.241 2°50.157 18.8629 4.365291 32.280426 5.556118
2005-07-04 11:45:50 51°14.317 2°50.536 18.867 4.358331 32.213478 5.050477
2005-07-04 11:46:50 51°14.39 2°50.917 18.8711 4.352215 32.159644 4.409999
2005-07-04 11:47:50 51°14.463 2°51.298 18.8675 4.349051 32.132972 7.039332
2005-07-04 11:48:49 51°14.521 2°51.677 18.8756 4.346625 32.112398 5.117896
2005-07-04 11:49:50 51°14.57 2°52.065 18.8707 4.343462 32.079101 5.320153
2005-07-04 11:50:50 51°14.617 2°52.448 18.9112 4.338505 32.048698 4.409999
2005-07-04 11:51:50 51°14.635 2°52.833 18.9764 4.336184 31.979969 5.320153
2005-07-04 11:52:50 51°14.653 2°53.22 18.9931 4.336711 31.946956 4.241452
2005-07-04 11:53:50 51°14.631 2°53.603 19.0262 4.34114 31.968582 4.207742
2005-07-04 11:54:50 51°14.597 2°53.988 19.0771 4.347467 31.990989 5.050477
2005-07-04 11:55:50 51°14.531 2°54.357 19.0966 4.350208 31.97899 4.780802
2005-07-04 11:56:50 51°14.444 2°54.708 19.0914 4.344829 31.92608 4.241452
2005-07-04 11:57:50 51°14.357 2°55.049 19.0472 4.332491 31.82864 4.88193
2005-07-04 11:58:50 51°14.263 2°55.258 19.2321 4.275864 31.397801 4.612255
2005-07-04 11:59:50 51°14.165 2°55.374 19.421 3.793881 27.338004 4.409999
2005-07-04 12:00:50 51°14.038 2°55.474 19.5288 3.626433 25.89596 4.275161
2005-07-04 12:01:50 51°13.94 2°55.553 19.6721 3.600091 25.645591 4.106614
2005-07-04 12:02:50 51°13.844 2°55.625 19.6655 3.309456 23.276642 3.870648
2005-07-04 12:03:50 51°13.755 2°55.715 19.742 3.330099 23.448095 3.938067
2005-07-04 12:04:50 51°13.699 2°55.818 19.818 3.023378 21.025492 4.713383
2005-07-04 12:05:50 51°13.644 2°55.917 20.0039 2.918122 20.193802 -0.309317
2005-07-04 12:06:50 51°13.609 2°56 20.0757 2.915912 20.184039 -0.376736
2005-07-04 12:07:50 51°13.6 2°56.083 20.1336 2.914544 20.175301 -0.410446
2005-07-04 12:08:50 51°13.599 2°56.105 20.196 2.912965 20.159916 -0.444155
2005-07-04 12:09:51 51°13.598 2°56.109 20.242 2.911387 20.146888 -0.444155